sensor_id;sensor_type;location;lat;lon;timestamp;P1;durP1;ratioP1;P2;durP2;ratioP2
57663;SDS011;43493;53.098;6.064;2023-02-28T00:01:09;10.80;;;3.30;;
57663;SDS011;43493;53.098;6.064;2023-02-28T00:03:36;12.73;;;2.95;;
57663;SDS011;43493;53.098;6.064;2023-02-28T00:06:02;11.10;;;3.10;;
57663;SDS011;43493;53.098;6.064;2023-02-28T00:08:31;11.45;;;3.20;;
57663;SDS011;43493;53.098;6.064;2023-02-28T00:11:01;10.43;;;3.43;;
57663;SDS011;43493;53.098;6.064;2023-02-28T00:13:28;12.63;;;2.97;;
57663;SDS011;43493;53.098;6.064;2023-02-28T00:16:00;12.37;;;2.57;;
57663;SDS011;43493;53.098;6.064;2023-02-28T00:18:27;12.63;;;2.97;;
57663;SDS011;43493;53.098;6.064;2023-02-28T00:20:53;8.95;;;2.70;;
57663;SDS011;43493;53.098;6.064;2023-02-28T00:23:18;12.10;;;2.97;;
57663;SDS011;43493;53.098;6.064;2023-02-28T00:25:44;8.93;;;2.30;;
57663;SDS011;43493;53.098;6.064;2023-02-28T00:28:10;12.87;;;2.63;;
57663;SDS011;43493;53.098;6.064;2023-02-28T00:30:36;11.47;;;2.90;;
57663;SDS011;43493;53.098;6.064;2023-02-28T00:33:01;14.87;;;3.00;;
57663;SDS011;43493;53.098;6.064;2023-02-28T00:35:27;12.77;;;3.73;;
57663;SDS011;43493;53.098;6.064;2023-02-28T00:37:53;13.50;;;3.23;;
57663;SDS011;43493;53.098;6.064;2023-02-28T00:40:18;14.97;;;3.30;;
57663;SDS011;43493;53.098;6.064;2023-02-28T00:42:44;10.33;;;3.30;;
57663;SDS011;43493;53.098;6.064;2023-02-28T00:45:10;9.87;;;3.07;;
57663;SDS011;43493;53.098;6.064;2023-02-28T00:47:36;11.27;;;3.00;;
57663;SDS011;43493;53.098;6.064;2023-02-28T00:50:02;12.50;;;4.03;;
57663;SDS011;43493;53.098;6.064;2023-02-28T00:52:28;14.75;;;3.92;;
57663;SDS011;43493;53.098;6.064;2023-02-28T00:54:54;9.93;;;3.20;;
57663;SDS011;43493;53.098;6.064;2023-02-28T00:57:20;12.37;;;3.80;;
57663;SDS011;43493;53.098;6.064;2023-02-28T00:59:46;14.48;;;5.07;;
57663;SDS011;43493;53.098;6.064;2023-02-28T01:02:12;15.67;;;4.77;;
57663;SDS011;43493;53.098;6.064;2023-02-28T01:04:38;10.57;;;3.73;;
57663;SDS011;43493;53.098;6.064;2023-02-28T01:07:04;11.43;;;3.67;;
57663;SDS011;43493;53.098;6.064;2023-02-28T01:09:29;16.90;;;3.67;;
57663;SDS011;43493;53.098;6.064;2023-02-28T01:11:55;10.37;;;3.43;;
57663;SDS011;43493;53.098;6.064;2023-02-28T01:14:21;9.00;;;3.60;;
57663;SDS011;43493;53.098;6.064;2023-02-28T01:16:47;12.00;;;4.17;;
57663;SDS011;43493;53.098;6.064;2023-02-28T01:19:13;8.53;;;2.90;;
57663;SDS011;43493;53.098;6.064;2023-02-28T01:21:38;12.20;;;3.30;;
57663;SDS011;43493;53.098;6.064;2023-02-28T01:24:04;12.50;;;3.37;;
57663;SDS011;43493;53.098;6.064;2023-02-28T01:26:30;14.27;;;3.58;;
57663;SDS011;43493;53.098;6.064;2023-02-28T01:28:57;11.93;;;3.47;;
57663;SDS011;43493;53.098;6.064;2023-02-28T01:31:23;10.00;;;3.60;;
57663;SDS011;43493;53.098;6.064;2023-02-28T01:33:49;7.15;;;3.20;;
57663;SDS011;43493;53.098;6.064;2023-02-28T01:36:20;8.43;;;3.03;;
57663;SDS011;43493;53.098;6.064;2023-02-28T01:38:47;11.30;;;2.92;;
57663;SDS011;43493;53.098;6.064;2023-02-28T01:41:17;10.23;;;3.15;;
57663;SDS011;43493;53.098;6.064;2023-02-28T01:46:11;10.57;;;3.43;;
57663;SDS011;43493;53.098;6.064;2023-02-28T01:48:42;11.55;;;4.93;;
57663;SDS011;43493;53.098;6.064;2023-02-28T01:51:26;11.30;;;4.43;;
57663;SDS011;43493;53.098;6.064;2023-02-28T01:53:56;14.52;;;4.00;;
57663;SDS011;43493;53.098;6.064;2023-02-28T01:56:27;10.27;;;3.22;;
57663;SDS011;43493;53.098;6.064;2023-02-28T01:58:57;16.48;;;3.35;;
57663;SDS011;43493;53.098;6.064;2023-02-28T02:01:24;15.07;;;3.58;;
57663;SDS011;43493;53.098;6.064;2023-02-28T02:03:56;11.75;;;3.97;;
57663;SDS011;43493;53.098;6.064;2023-02-28T02:06:30;9.38;;;3.22;;
57663;SDS011;43493;53.098;6.064;2023-02-28T02:09:02;10.27;;;3.83;;
57663;SDS011;43493;53.098;6.064;2023-02-28T02:11:28;8.90;;;3.07;;
57663;SDS011;43493;53.098;6.064;2023-02-28T02:16:40;12.33;;;3.90;;
57663;SDS011;43493;53.098;6.064;2023-02-28T02:36:14;8.88;;;3.17;;
57663;SDS011;43493;53.098;6.064;2023-02-28T02:38:51;15.52;;;3.65;;
57663;SDS011;43493;53.098;6.064;2023-02-28T02:41:32;10.30;;;3.13;;
57663;SDS011;43493;53.098;6.064;2023-02-28T02:44:05;13.20;;;4.07;;
57663;SDS011;43493;53.098;6.064;2023-02-28T02:46:59;11.52;;;3.47;;
57663;SDS011;43493;53.098;6.064;2023-02-28T02:49:39;11.65;;;3.55;;
57663;SDS011;43493;53.098;6.064;2023-02-28T02:52:12;13.68;;;3.50;;
57663;SDS011;43493;53.098;6.064;2023-02-28T02:54:43;7.05;;;3.72;;
57663;SDS011;43493;53.098;6.064;2023-02-28T02:57:23;12.52;;;4.18;;
57663;SDS011;43493;53.098;6.064;2023-02-28T02:59:54;12.18;;;4.43;;
57663;SDS011;43493;53.098;6.064;2023-02-28T03:02:22;11.23;;;3.90;;
57663;SDS011;43493;53.098;6.064;2023-02-28T03:04:56;9.05;;;3.75;;
57663;SDS011;43493;53.098;6.064;2023-02-28T03:07:26;13.10;;;4.70;;
57663;SDS011;43493;53.098;6.064;2023-02-28T03:09:52;13.80;;;4.32;;
57663;SDS011;43493;53.098;6.064;2023-02-28T03:12:19;11.63;;;4.68;;
57663;SDS011;43493;53.098;6.064;2023-02-28T03:15:11;11.90;;;3.72;;
57663;SDS011;43493;53.098;6.064;2023-02-28T03:18:03;11.85;;;4.03;;
57663;SDS011;43493;53.098;6.064;2023-02-28T03:20:58;13.10;;;4.22;;
57663;SDS011;43493;53.098;6.064;2023-02-28T03:23:42;9.65;;;3.40;;
57663;SDS011;43493;53.098;6.064;2023-02-28T03:26:17;11.23;;;3.28;;
57663;SDS011;43493;53.098;6.064;2023-02-28T03:36:35;14.57;;;3.67;;
57663;SDS011;43493;53.098;6.064;2023-02-28T03:39:13;11.10;;;3.47;;
57663;SDS011;43493;53.098;6.064;2023-02-28T03:41:43;13.15;;;3.42;;
57663;SDS011;43493;53.098;6.064;2023-02-28T03:44:28;10.38;;;3.78;;
57663;SDS011;43493;53.098;6.064;2023-02-28T03:47:13;11.43;;;3.53;;
57663;SDS011;43493;53.098;6.064;2023-02-28T03:49:56;10.30;;;3.33;;
57663;SDS011;43493;53.098;6.064;2023-02-28T03:52:36;9.60;;;3.08;;
57663;SDS011;43493;53.098;6.064;2023-02-28T03:55:10;10.13;;;3.15;;
57663;SDS011;43493;53.098;6.064;2023-02-28T03:57:44;8.30;;;3.50;;
57663;SDS011;43493;53.098;6.064;2023-02-28T04:00:25;10.70;;;3.35;;
57663;SDS011;43493;53.098;6.064;2023-02-28T04:02:55;11.63;;;3.28;;
57663;SDS011;43493;53.098;6.064;2023-02-28T04:05:21;11.80;;;3.40;;
57663;SDS011;43493;53.098;6.064;2023-02-28T04:07:48;15.38;;;3.55;;
57663;SDS011;43493;53.098;6.064;2023-02-28T04:10:14;8.70;;;3.27;;
57663;SDS011;43493;53.098;6.064;2023-02-28T04:12:41;7.72;;;3.20;;
57663;SDS011;43493;53.098;6.064;2023-02-28T04:15:07;12.87;;;3.70;;
57663;SDS011;43493;53.098;6.064;2023-02-28T04:17:33;12.23;;;3.85;;
57663;SDS011;43493;53.098;6.064;2023-02-28T04:19:59;10.57;;;3.40;;
57663;SDS011;43493;53.098;6.064;2023-02-28T04:22:24;15.40;;;3.80;;
57663;SDS011;43493;53.098;6.064;2023-02-28T04:24:53;9.95;;;3.05;;
57663;SDS011;43493;53.098;6.064;2023-02-28T04:27:20;12.48;;;3.30;;
57663;SDS011;43493;53.098;6.064;2023-02-28T04:29:46;10.57;;;3.45;;
57663;SDS011;43493;53.098;6.064;2023-02-28T04:32:12;13.10;;;4.07;;
57663;SDS011;43493;53.098;6.064;2023-02-28T04:34:38;10.30;;;3.83;;
57663;SDS011;43493;53.098;6.064;2023-02-28T04:37:04;9.43;;;4.03;;
57663;SDS011;43493;53.098;6.064;2023-02-28T04:39:34;7.90;;;3.90;;
57663;SDS011;43493;53.098;6.064;2023-02-28T04:42:00;8.20;;;4.32;;
57663;SDS011;43493;53.098;6.064;2023-02-28T04:44:26;8.63;;;4.17;;
57663;SDS011;43493;53.098;6.064;2023-02-28T04:46:52;11.23;;;5.70;;
57663;SDS011;43493;53.098;6.064;2023-02-28T04:49:18;11.03;;;6.33;;
57663;SDS011;43493;53.098;6.064;2023-02-28T04:51:43;11.83;;;6.43;;
57663;SDS011;43493;53.098;6.064;2023-02-28T04:54:09;10.70;;;6.33;;
57663;SDS011;43493;53.098;6.064;2023-02-28T04:56:35;16.37;;;7.33;;
57663;SDS011;43493;53.098;6.064;2023-02-28T04:59:00;11.57;;;6.87;;
57663;SDS011;43493;53.098;6.064;2023-02-28T05:01:28;10.07;;;6.40;;
57663;SDS011;43493;53.098;6.064;2023-02-28T05:03:55;12.32;;;6.53;;
57663;SDS011;43493;53.098;6.064;2023-02-28T05:06:23;11.98;;;6.32;;
57663;SDS011;43493;53.098;6.064;2023-02-28T05:08:50;9.00;;;6.05;;
57663;SDS011;43493;53.098;6.064;2023-02-28T05:11:18;12.02;;;6.38;;
57663;SDS011;43493;53.098;6.064;2023-02-28T05:13:46;13.57;;;6.38;;
57663;SDS011;43493;53.098;6.064;2023-02-28T05:16:13;8.88;;;5.55;;
57663;SDS011;43493;53.098;6.064;2023-02-28T05:18:39;11.60;;;6.20;;
57663;SDS011;43493;53.098;6.064;2023-02-28T05:21:05;8.75;;;5.53;;
57663;SDS011;43493;53.098;6.064;2023-02-28T05:23:32;6.78;;;5.00;;
57663;SDS011;43493;53.098;6.064;2023-02-28T05:25:57;8.02;;;4.88;;
57663;SDS011;43493;53.098;6.064;2023-02-28T05:28:23;10.40;;;4.67;;
57663;SDS011;43493;53.098;6.064;2023-02-28T05:30:49;8.23;;;5.20;;
57663;SDS011;43493;53.098;6.064;2023-02-28T05:33:15;6.70;;;4.37;;
57663;SDS011;43493;53.098;6.064;2023-02-28T05:35:40;7.73;;;5.70;;
57663;SDS011;43493;53.098;6.064;2023-02-28T05:38:09;9.00;;;5.45;;
57663;SDS011;43493;53.098;6.064;2023-02-28T05:40:35;8.23;;;5.57;;
57663;SDS011;43493;53.098;6.064;2023-02-28T05:43:04;8.95;;;5.43;;
57663;SDS011;43493;53.098;6.064;2023-02-28T05:45:29;8.83;;;5.20;;
57663;SDS011;43493;53.098;6.064;2023-02-28T05:47:55;10.30;;;5.87;;
57663;SDS011;43493;53.098;6.064;2023-02-28T05:50:21;8.60;;;6.07;;
57663;SDS011;43493;53.098;6.064;2023-02-28T05:52:50;9.67;;;6.43;;
57663;SDS011;43493;53.098;6.064;2023-02-28T05:55:17;8.48;;;5.95;;
57663;SDS011;43493;53.098;6.064;2023-02-28T05:57:43;11.45;;;6.72;;
57663;SDS011;43493;53.098;6.064;2023-02-28T06:00:09;8.83;;;6.20;;
57663;SDS011;43493;53.098;6.064;2023-02-28T06:02:35;7.70;;;5.25;;
57663;SDS011;43493;53.098;6.064;2023-02-28T06:05:01;7.83;;;5.40;;
57663;SDS011;43493;53.098;6.064;2023-02-28T06:07:27;8.17;;;5.37;;
57663;SDS011;43493;53.098;6.064;2023-02-28T06:09:52;9.17;;;5.83;;
57663;SDS011;43493;53.098;6.064;2023-02-28T06:12:18;7.43;;;4.83;;
57663;SDS011;43493;53.098;6.064;2023-02-28T06:14:44;6.63;;;4.53;;
57663;SDS011;43493;53.098;6.064;2023-02-28T06:17:10;7.00;;;5.03;;
57663;SDS011;43493;53.098;6.064;2023-02-28T06:19:36;7.40;;;5.00;;
57663;SDS011;43493;53.098;6.064;2023-02-28T06:22:03;6.95;;;5.25;;
57663;SDS011;43493;53.098;6.064;2023-02-28T06:24:29;9.32;;;5.38;;
57663;SDS011;43493;53.098;6.064;2023-02-28T06:26:56;10.57;;;6.32;;
57663;SDS011;43493;53.098;6.064;2023-02-28T06:29:24;11.18;;;7.00;;
57663;SDS011;43493;53.098;6.064;2023-02-28T06:31:50;13.38;;;8.80;;
57663;SDS011;43493;53.098;6.064;2023-02-28T06:34:16;12.83;;;9.20;;
57663;SDS011;43493;53.098;6.064;2023-02-28T06:36:41;13.32;;;9.45;;
57663;SDS011;43493;53.098;6.064;2023-02-28T06:39:08;14.48;;;9.85;;
57663;SDS011;43493;53.098;6.064;2023-02-28T06:41:34;11.57;;;8.93;;
57663;SDS011;43493;53.098;6.064;2023-02-28T06:44:05;12.10;;;9.18;;
57663;SDS011;43493;53.098;6.064;2023-02-28T06:46:36;14.45;;;10.30;;
57663;SDS011;43493;53.098;6.064;2023-02-28T06:49:04;14.38;;;10.30;;
57663;SDS011;43493;53.098;6.064;2023-02-28T06:51:33;12.27;;;9.68;;
57663;SDS011;43493;53.098;6.064;2023-02-28T06:54:00;15.20;;;10.52;;
57663;SDS011;43493;53.098;6.064;2023-02-28T06:56:26;11.97;;;9.87;;
57663;SDS011;43493;53.098;6.064;2023-02-28T06:58:51;13.47;;;10.43;;
57663;SDS011;43493;53.098;6.064;2023-02-28T07:01:21;13.50;;;10.38;;
57663;SDS011;43493;53.098;6.064;2023-02-28T07:03:48;14.07;;;10.38;;
57663;SDS011;43493;53.098;6.064;2023-02-28T07:06:26;13.82;;;10.65;;
57663;SDS011;43493;53.098;6.064;2023-02-28T07:11:19;16.00;;;11.43;;
57663;SDS011;43493;53.098;6.064;2023-02-28T07:13:47;16.33;;;11.77;;
57663;SDS011;43493;53.098;6.064;2023-02-28T07:16:14;15.45;;;11.93;;
57663;SDS011;43493;53.098;6.064;2023-02-28T07:18:40;18.37;;;12.63;;
57663;SDS011;43493;53.098;6.064;2023-02-28T07:21:06;17.57;;;12.83;;
57663;SDS011;43493;53.098;6.064;2023-02-28T07:23:34;16.40;;;13.13;;
57663;SDS011;43493;53.098;6.064;2023-02-28T07:26:00;20.13;;;13.65;;
57663;SDS011;43493;53.098;6.064;2023-02-28T07:28:26;20.67;;;14.60;;
57663;SDS011;43493;53.098;6.064;2023-02-28T07:30:52;19.08;;;13.55;;
57663;SDS011;43493;53.098;6.064;2023-02-28T07:33:18;18.10;;;12.70;;
57663;SDS011;43493;53.098;6.064;2023-02-28T07:35:44;19.17;;;13.17;;
57663;SDS011;43493;53.098;6.064;2023-02-28T07:38:09;19.33;;;13.47;;
57663;SDS011;43493;53.098;6.064;2023-02-28T07:40:36;21.47;;;14.03;;
57663;SDS011;43493;53.098;6.064;2023-02-28T07:43:02;18.33;;;13.30;;
57663;SDS011;43493;53.098;6.064;2023-02-28T07:45:28;21.85;;;14.00;;
57663;SDS011;43493;53.098;6.064;2023-02-28T07:47:55;22.25;;;15.40;;
57663;SDS011;43493;53.098;6.064;2023-02-28T07:50:21;20.40;;;14.43;;
57663;SDS011;43493;53.098;6.064;2023-02-28T07:52:47;17.50;;;13.25;;
57663;SDS011;43493;53.098;6.064;2023-02-28T07:55:13;17.97;;;14.20;;
57663;SDS011;43493;53.098;6.064;2023-02-28T07:57:39;18.83;;;13.73;;
57663;SDS011;43493;53.098;6.064;2023-02-28T08:00:06;20.08;;;13.95;;
57663;SDS011;43493;53.098;6.064;2023-02-28T08:02:35;21.17;;;13.77;;
57663;SDS011;43493;53.098;6.064;2023-02-28T08:05:01;20.60;;;14.50;;
57663;SDS011;43493;53.098;6.064;2023-02-28T08:07:27;19.63;;;14.23;;
57663;SDS011;43493;53.098;6.064;2023-02-28T08:09:53;17.65;;;13.85;;
57663;SDS011;43493;53.098;6.064;2023-02-28T08:12:19;20.83;;;14.73;;
57663;SDS011;43493;53.098;6.064;2023-02-28T08:14:45;18.33;;;14.48;;
57663;SDS011;43493;53.098;6.064;2023-02-28T08:17:11;17.93;;;14.73;;
57663;SDS011;43493;53.098;6.064;2023-02-28T08:19:37;19.08;;;15.23;;
57663;SDS011;43493;53.098;6.064;2023-02-28T08:22:03;19.23;;;14.30;;
57663;SDS011;43493;53.098;6.064;2023-02-28T08:24:30;17.30;;;14.43;;
57663;SDS011;43493;53.098;6.064;2023-02-28T08:26:56;19.10;;;14.50;;
57663;SDS011;43493;53.098;6.064;2023-02-28T08:29:21;20.30;;;15.93;;
57663;SDS011;43493;53.098;6.064;2023-02-28T08:31:47;17.80;;;13.67;;
57663;SDS011;43493;53.098;6.064;2023-02-28T08:34:14;21.87;;;15.37;;
57663;SDS011;43493;53.098;6.064;2023-02-28T08:36:41;18.52;;;14.52;;
57663;SDS011;43493;53.098;6.064;2023-02-28T08:39:09;18.55;;;14.60;;
57663;SDS011;43493;53.098;6.064;2023-02-28T08:41:35;17.17;;;13.40;;
57663;SDS011;43493;53.098;6.064;2023-02-28T08:44:01;15.70;;;12.80;;
57663;SDS011;43493;53.098;6.064;2023-02-28T08:46:27;15.80;;;12.73;;
57663;SDS011;43493;53.098;6.064;2023-02-28T08:48:54;16.03;;;11.30;;
57663;SDS011;43493;53.098;6.064;2023-02-28T08:51:20;14.63;;;11.98;;
57663;SDS011;43493;53.098;6.064;2023-02-28T08:53:51;15.02;;;12.18;;
57663;SDS011;43493;53.098;6.064;2023-02-28T08:56:19;15.95;;;12.88;;
57663;SDS011;43493;53.098;6.064;2023-02-28T08:58:45;18.23;;;13.27;;
57663;SDS011;43493;53.098;6.064;2023-02-28T09:01:19;18.02;;;12.80;;
57663;SDS011;43493;53.098;6.064;2023-02-28T09:03:47;15.43;;;12.70;;
57663;SDS011;43493;53.098;6.064;2023-02-28T09:06:15;16.80;;;12.75;;
57663;SDS011;43493;53.098;6.064;2023-02-28T09:08:42;14.68;;;11.70;;
57663;SDS011;43493;53.098;6.064;2023-02-28T09:11:09;15.57;;;11.90;;
57663;SDS011;43493;53.098;6.064;2023-02-28T09:13:36;15.30;;;11.90;;
57663;SDS011;43493;53.098;6.064;2023-02-28T09:16:03;14.23;;;12.38;;
57663;SDS011;43493;53.098;6.064;2023-02-28T09:18:30;14.80;;;11.27;;
57663;SDS011;43493;53.098;6.064;2023-02-28T09:20:56;14.33;;;11.93;;
57663;SDS011;43493;53.098;6.064;2023-02-28T09:23:23;14.35;;;11.40;;
57663;SDS011;43493;53.098;6.064;2023-02-28T09:25:52;13.90;;;11.00;;
57663;SDS011;43493;53.098;6.064;2023-02-28T09:28:19;13.50;;;11.52;;
57663;SDS011;43493;53.098;6.064;2023-02-28T09:30:46;15.38;;;11.00;;
57663;SDS011;43493;53.098;6.064;2023-02-28T09:33:13;14.88;;;10.98;;
57663;SDS011;43493;53.098;6.064;2023-02-28T09:35:39;16.13;;;12.05;;
57663;SDS011;43493;53.098;6.064;2023-02-28T09:38:05;13.57;;;10.80;;
57663;SDS011;43493;53.098;6.064;2023-02-28T09:40:35;13.02;;;10.52;;
57663;SDS011;43493;53.098;6.064;2023-02-28T09:43:28;12.82;;;10.48;;
57663;SDS011;43493;53.098;6.064;2023-02-28T09:46:05;15.27;;;10.88;;
57663;SDS011;43493;53.098;6.064;2023-02-28T09:48:54;13.98;;;11.40;;
57663;SDS011;43493;53.098;6.064;2023-02-28T09:51:26;13.38;;;10.25;;
57663;SDS011;43493;53.098;6.064;2023-02-28T09:53:58;12.60;;;10.07;;
57663;SDS011;43493;53.098;6.064;2023-02-28T09:56:25;13.50;;;9.90;;
57663;SDS011;43493;53.098;6.064;2023-02-28T10:09:57;12.10;;;9.23;;
57663;SDS011;43493;53.098;6.064;2023-02-28T10:12:27;13.10;;;9.40;;
57663;SDS011;43493;53.098;6.064;2023-02-28T10:14:56;12.48;;;8.70;;
57663;SDS011;43493;53.098;6.064;2023-02-28T10:17:25;13.60;;;10.00;;
57663;SDS011;43493;53.098;6.064;2023-02-28T10:20:00;12.65;;;8.75;;
57663;SDS011;43493;53.098;6.064;2023-02-28T10:25:33;16.15;;;9.13;;
57663;SDS011;43493;53.098;6.064;2023-02-28T10:28:11;11.68;;;7.75;;
57663;SDS011;43493;53.098;6.064;2023-02-28T10:30:39;13.23;;;8.93;;
57663;SDS011;43493;53.098;6.064;2023-02-28T10:33:28;11.23;;;8.20;;
57663;SDS011;43493;53.098;6.064;2023-02-28T10:35:56;12.00;;;8.23;;
57663;SDS011;43493;53.098;6.064;2023-02-28T10:38:24;11.10;;;7.43;;
57663;SDS011;43493;53.098;6.064;2023-02-28T10:41:03;10.70;;;6.00;;
57663;SDS011;43493;53.098;6.064;2023-02-28T10:43:32;9.68;;;6.50;;
57663;SDS011;43493;53.098;6.064;2023-02-28T10:45:59;11.95;;;6.20;;
57663;SDS011;43493;53.098;6.064;2023-02-28T10:48:45;12.68;;;7.03;;
57663;SDS011;43493;53.098;6.064;2023-02-28T10:51:22;10.18;;;6.45;;
57663;SDS011;43493;53.098;6.064;2023-02-28T10:53:51;11.80;;;6.53;;
57663;SDS011;43493;53.098;6.064;2023-02-28T10:56:20;9.73;;;5.22;;
57663;SDS011;43493;53.098;6.064;2023-02-28T11:03:49;10.95;;;6.55;;
57663;SDS011;43493;53.098;6.064;2023-02-28T11:06:20;12.15;;;6.38;;
57663;SDS011;43493;53.098;6.064;2023-02-28T11:08:52;11.98;;;7.10;;
57663;SDS011;43493;53.098;6.064;2023-02-28T11:11:20;11.55;;;5.88;;
57663;SDS011;43493;53.098;6.064;2023-02-28T11:13:48;9.38;;;4.85;;
57663;SDS011;43493;53.098;6.064;2023-02-28T11:16:17;8.38;;;4.95;;
57663;SDS011;43493;53.098;6.064;2023-02-28T11:18:55;9.35;;;4.20;;
57663;SDS011;43493;53.098;6.064;2023-02-28T11:21:26;6.32;;;4.03;;
57663;SDS011;43493;53.098;6.064;2023-02-28T11:24:00;7.60;;;3.88;;
57663;SDS011;43493;53.098;6.064;2023-02-28T11:26:40;6.47;;;4.00;;
57663;SDS011;43493;53.098;6.064;2023-02-28T11:29:30;9.05;;;3.97;;
57663;SDS011;43493;53.098;6.064;2023-02-28T11:34:37;6.05;;;2.80;;
57663;SDS011;43493;53.098;6.064;2023-02-28T11:37:05;6.55;;;3.40;;
57663;SDS011;43493;53.098;6.064;2023-02-28T11:39:39;8.32;;;4.70;;
57663;SDS011;43493;53.098;6.064;2023-02-28T11:55:26;8.57;;;4.22;;
57663;SDS011;43493;53.098;6.064;2023-02-28T11:58:22;8.18;;;3.95;;
57663;SDS011;43493;53.098;6.064;2023-02-28T12:03:51;8.43;;;4.53;;
57663;SDS011;43493;53.098;6.064;2023-02-28T12:06:25;6.72;;;4.45;;
57663;SDS011;43493;53.098;6.064;2023-02-28T12:09:03;5.90;;;4.15;;
57663;SDS011;43493;53.098;6.064;2023-02-28T12:17:43;5.78;;;3.85;;
57663;SDS011;43493;53.098;6.064;2023-02-28T12:20:44;7.50;;;3.80;;
57663;SDS011;43493;53.098;6.064;2023-02-28T12:26:39;6.53;;;3.65;;
57663;SDS011;43493;53.098;6.064;2023-02-28T12:29:13;7.78;;;3.50;;
57663;SDS011;43493;53.098;6.064;2023-02-28T12:31:52;6.85;;;3.80;;
57663;SDS011;43493;53.098;6.064;2023-02-28T12:34:23;6.00;;;3.58;;
57663;SDS011;43493;53.098;6.064;2023-02-28T12:36:53;7.65;;;4.25;;
57663;SDS011;43493;53.098;6.064;2023-02-28T12:39:26;6.72;;;3.10;;
57663;SDS011;43493;53.098;6.064;2023-02-28T12:42:01;6.40;;;3.92;;
57663;SDS011;43493;53.098;6.064;2023-02-28T12:44:35;6.47;;;3.85;;
57663;SDS011;43493;53.098;6.064;2023-02-28T12:47:11;7.13;;;3.60;;
57663;SDS011;43493;53.098;6.064;2023-02-28T12:49:50;7.82;;;3.88;;
57663;SDS011;43493;53.098;6.064;2023-02-28T12:52:25;6.97;;;3.80;;
57663;SDS011;43493;53.098;6.064;2023-02-28T12:57:46;6.65;;;3.85;;
57663;SDS011;43493;53.098;6.064;2023-02-28T13:00:25;10.20;;;4.20;;
57663;SDS011;43493;53.098;6.064;2023-02-28T13:03:17;7.80;;;3.92;;
57663;SDS011;43493;53.098;6.064;2023-02-28T13:09:08;6.43;;;3.63;;
57663;SDS011;43493;53.098;6.064;2023-02-28T13:11:43;7.57;;;3.90;;
57663;SDS011;43493;53.098;6.064;2023-02-28T13:19:32;7.20;;;3.92;;
57663;SDS011;43493;53.098;6.064;2023-02-28T13:22:00;8.05;;;4.07;;
57663;SDS011;43493;53.098;6.064;2023-02-28T13:24:38;6.95;;;4.35;;
57663;SDS011;43493;53.098;6.064;2023-02-28T13:29:31;7.47;;;3.90;;
57663;SDS011;43493;53.098;6.064;2023-02-28T13:34:37;6.45;;;4.03;;
57663;SDS011;43493;53.098;6.064;2023-02-28T13:39:55;7.20;;;3.70;;
57663;SDS011;43493;53.098;6.064;2023-02-28T13:47:42;5.70;;;3.70;;
57663;SDS011;43493;53.098;6.064;2023-02-28T14:06:46;6.10;;;3.22;;
57663;SDS011;43493;53.098;6.064;2023-02-28T14:11:48;6.53;;;3.42;;
57663;SDS011;43493;53.098;6.064;2023-02-28T14:17:08;9.35;;;4.28;;
57663;SDS011;43493;53.098;6.064;2023-02-28T14:19:40;6.88;;;3.60;;
57663;SDS011;43493;53.098;6.064;2023-02-28T14:30:57;7.32;;;3.95;;
57663;SDS011;43493;53.098;6.064;2023-02-28T14:33:41;9.63;;;3.97;;
57663;SDS011;43493;53.098;6.064;2023-02-28T14:36:23;8.95;;;4.25;;
57663;SDS011;43493;53.098;6.064;2023-02-28T14:39:14;6.13;;;3.58;;
57663;SDS011;43493;53.098;6.064;2023-02-28T14:41:44;8.48;;;3.30;;
57663;SDS011;43493;53.098;6.064;2023-02-28T14:44:21;6.80;;;3.90;;
57663;SDS011;43493;53.098;6.064;2023-02-28T14:46:59;8.77;;;3.67;;
57663;SDS011;43493;53.098;6.064;2023-02-28T14:49:34;7.70;;;3.78;;
57663;SDS011;43493;53.098;6.064;2023-02-28T14:52:07;5.70;;;3.53;;
57663;SDS011;43493;53.098;6.064;2023-02-28T14:54:41;6.10;;;3.65;;
57663;SDS011;43493;53.098;6.064;2023-02-28T14:57:20;6.65;;;3.40;;
57663;SDS011;43493;53.098;6.064;2023-02-28T14:59:56;6.57;;;3.53;;
57663;SDS011;43493;53.098;6.064;2023-02-28T15:02:42;7.88;;;3.70;;
57663;SDS011;43493;53.098;6.064;2023-02-28T15:07:46;6.82;;;3.67;;
57663;SDS011;43493;53.098;6.064;2023-02-28T15:10:26;7.47;;;3.65;;
57663;SDS011;43493;53.098;6.064;2023-02-28T15:12:53;7.22;;;4.00;;
57663;SDS011;43493;53.098;6.064;2023-02-28T15:15:40;6.97;;;3.85;;
57663;SDS011;43493;53.098;6.064;2023-02-28T15:19:00;6.53;;;3.92;;
57663;SDS011;43493;53.098;6.064;2023-02-28T15:21:03;7.20;;;3.53;;
57663;SDS011;43493;53.098;6.064;2023-02-28T15:23:32;7.45;;;4.13;;
57663;SDS011;43493;53.098;6.064;2023-02-28T15:26:01;6.30;;;3.45;;
57663;SDS011;43493;53.098;6.064;2023-02-28T15:28:27;8.07;;;3.60;;
57663;SDS011;43493;53.098;6.064;2023-02-28T15:31:00;8.50;;;3.58;;
57663;SDS011;43493;53.098;6.064;2023-02-28T15:33:31;6.43;;;3.50;;
57663;SDS011;43493;53.098;6.064;2023-02-28T15:36:14;7.32;;;3.70;;
57663;SDS011;43493;53.098;6.064;2023-02-28T15:38:42;7.05;;;3.40;;
57663;SDS011;43493;53.098;6.064;2023-02-28T15:41:25;8.43;;;3.70;;
57663;SDS011;43493;53.098;6.064;2023-02-28T15:44:15;6.72;;;3.47;;
57663;SDS011;43493;53.098;6.064;2023-02-28T15:49:27;8.90;;;3.97;;
57663;SDS011;43493;53.098;6.064;2023-02-28T15:51:55;7.78;;;4.97;;
57663;SDS011;43493;53.098;6.064;2023-02-28T15:54:27;6.35;;;3.97;;
57663;SDS011;43493;53.098;6.064;2023-02-28T15:56:55;9.30;;;4.05;;
57663;SDS011;43493;53.098;6.064;2023-02-28T15:59:24;9.82;;;6.10;;
57663;SDS011;43493;53.098;6.064;2023-02-28T16:02:03;7.10;;;3.88;;
57663;SDS011;43493;53.098;6.064;2023-02-28T16:04:35;6.57;;;4.35;;
57663;SDS011;43493;53.098;6.064;2023-02-28T16:07:02;7.68;;;3.70;;
57663;SDS011;43493;53.098;6.064;2023-02-28T16:09:30;7.43;;;4.10;;
57663;SDS011;43493;53.098;6.064;2023-02-28T16:11:58;6.88;;;3.80;;
57663;SDS011;43493;53.098;6.064;2023-02-28T16:14:29;8.23;;;4.15;;
57663;SDS011;43493;53.098;6.064;2023-02-28T16:16:56;6.57;;;3.95;;
57663;SDS011;43493;53.098;6.064;2023-02-28T16:19:30;8.68;;;4.65;;
57663;SDS011;43493;53.098;6.064;2023-02-28T16:21:56;7.70;;;4.53;;
57663;SDS011;43493;53.098;6.064;2023-02-28T16:24:22;7.95;;;4.30;;
57663;SDS011;43493;53.098;6.064;2023-02-28T16:26:49;7.97;;;4.57;;
57663;SDS011;43493;53.098;6.064;2023-02-28T16:29:20;8.07;;;4.53;;
57663;SDS011;43493;53.098;6.064;2023-02-28T16:31:51;11.75;;;4.88;;
57663;SDS011;43493;53.098;6.064;2023-02-28T16:34:18;9.23;;;4.80;;
57663;SDS011;43493;53.098;6.064;2023-02-28T16:36:45;9.43;;;5.33;;
57663;SDS011;43493;53.098;6.064;2023-02-28T16:39:12;8.93;;;4.88;;
57663;SDS011;43493;53.098;6.064;2023-02-28T16:41:38;13.03;;;5.00;;
57663;SDS011;43493;53.098;6.064;2023-02-28T16:44:10;7.40;;;4.70;;
57663;SDS011;43493;53.098;6.064;2023-02-28T16:46:42;9.02;;;5.80;;
57663;SDS011;43493;53.098;6.064;2023-02-28T16:49:10;9.10;;;5.80;;
57663;SDS011;43493;53.098;6.064;2023-02-28T16:51:37;11.48;;;5.68;;
57663;SDS011;43493;53.098;6.064;2023-02-28T16:54:03;10.20;;;6.10;;
57663;SDS011;43493;53.098;6.064;2023-02-28T16:56:29;11.43;;;6.80;;
57663;SDS011;43493;53.098;6.064;2023-02-28T16:58:55;10.63;;;7.00;;
57663;SDS011;43493;53.098;6.064;2023-02-28T17:01:25;18.85;;;12.27;;
57663;SDS011;43493;53.098;6.064;2023-02-28T17:03:52;14.80;;;8.95;;
57663;SDS011;43493;53.098;6.064;2023-02-28T17:06:36;10.82;;;5.93;;
57663;SDS011;43493;53.098;6.064;2023-02-28T17:09:02;9.63;;;5.60;;
57663;SDS011;43493;53.098;6.064;2023-02-28T17:11:29;10.43;;;6.10;;
57663;SDS011;43493;53.098;6.064;2023-02-28T17:13:54;11.13;;;6.27;;
57663;SDS011;43493;53.098;6.064;2023-02-28T17:16:27;12.23;;;6.10;;